NCAR-RAP Real-Time Weather Data

Output produced by METARs form (17 December 2018  13:55 UTC)
found at http://weather.rap.ucar.edu/surface/
 
RJTO 170700Z 29004KT 220V340 9999 FEW013 SCT020 15/11 Q1002
RJTO 170600Z 23012KT 200V270 9999 FEW020 16/10 Q1002
RJTO 170500Z 23011KT 200V270 9999 FEW015 16/11 Q1002
RJTO 170400Z 22009KT 9999 FEW015 BKN020 15/12 Q1002
RJTO 170300Z 24005KT 210V280 9999 FEW010 SCT050 BKN080 14/11 Q1003
RJTO 170200Z VRB02KT 9999 -RA FEW008 SCT050 BKN060 12/11 Q1004
RJTO 170100Z 06007KT 9999 FEW008 BKN060 BKN070 12/10 Q1005
RJTO 170000Z 01006KT 330V030 9999 SHRA FEW010 SCT015 BKN070 11/10 Q1008
RJTO 162300Z 02008KT 9999 -SHRA FEW009 SCT010 BKN070 12/10 Q1008
RJTO 160700Z 18005KT 150V220 9999 FEW015 BKN045 11/08 Q1020
RJTO 160600Z 13003KT 090V170 9999 FEW015 12/09 Q1020
RJTO 160500Z 05003KT 330V120 9999 -SHRA FEW010 SCT030 BKN070 11/09 Q1021
RJTO 160400Z 05003KT 9999 -SHRA FEW025 BKN040 BKN060 10/07 Q1021
RJTO 160300Z 03004KT 330V050 9999 -SHRA FEW030 BKN040 BKN060 10/07 Q1022
RJTO 160200Z 01006KT 340V040 9999 -SHRA FEW030 BKN040 BKN050 10/07 Q1023
RJTO 160100Z 07004KT 9999 FEW030 SCT040 BKN050 10/06 Q1024
RJTO 160000Z 01007KT 9999 FEW030 BKN040 09/05 Q1025
RJTO 150700Z 04008KT 010V100 9999 FEW030 09/M03 Q1025
RJTO 150600Z 05009KT 330V100 9999 FEW030 SCT060 10/M03 Q1024
RJTO 150500Z 05011KT 9999 FEW030 BKN060 10/M04 Q1024
RJTO 150400Z 04013KT 010V070 9999 FEW030 BKN060 10/M03 Q1024
RJTO 150300Z 04014KT 9999 FEW020 SCT050 BKN060 10/M04 Q1024
RJTO 150200Z 04016KT 9999 FEW020 BKN050 09/M04 Q1025